Time;durP1;ratioP1;P1;durP2;ratioP2;P2;SDS_P1;SDS_P2;PMS_P1;PMS_P2;Temp;Humidity;BMP_temperature;BMP_pressure;BME280_temperature;BME280_humidity;BME280_pressure;Samples;Min_cycle;Max_cycle;Signal;HPM_P1;HPM_P2
2021/08/04 00:01:29;;;;;;;4.63;3.20;;;;;;;;;;4883592;29;20116;-64
2021/08/04 00:04:15;;;;;;;3.45;3.10;;;;;;;;;;4880300;29;20057;-64
2021/08/04 00:07:00;;;;;;;4.60;3.45;;;;;;;;;;4880877;29;20060;-64
2021/08/04 00:09:46;;;;;;;4.05;3.05;;;;;;;;;;4880771;29;20101;-64
2021/08/04 00:12:31;;;;;;;3.85;3.35;;;;;;;;;;4880668;29;20064;-64
2021/08/04 00:15:17;;;;;;;5.65;3.67;;;;;;;;;;4882231;29;20056;-64
2021/08/04 00:18:02;;;;;;;4.25;3.67;;;;;;;;;;4880638;29;20056;-64
2021/08/04 00:20:48;;;;;;;3.58;3.28;;;;;;;;;;4884050;29;20133;-64
2021/08/04 00:23:33;;;;;;;4.18;3.30;;;;;;;;;;4898571;29;20425;-64
2021/08/04 00:26:18;;;;;;;4.82;3.63;;;;;;;;;;4899410;29;20052;-64
2021/08/04 00:29:04;;;;;;;10.05;3.92;;;;;;;;;;4898905;29;20060;-64
2021/08/04 00:31:49;;;;;;;5.18;3.78;;;;;;;;;;4896497;29;20100;-64
2021/08/04 00:34:35;;;;;;;5.43;4.18;;;;;;;;;;4910588;29;20080;-64
2021/08/04 00:37:20;;;;;;;4.75;3.67;;;;;;;;;;4897924;29;20053;-64
2021/08/04 00:40:06;;;;;;;5.35;4.40;;;;;;;;;;4898991;29;20049;-64
2021/08/04 00:42:53;;;;;;;4.55;4.13;;;;;;;;;;4883789;29;20134;-64
2021/08/04 00:45:38;;;;;;;7.38;5.20;;;;;;;;;;4898109;29;20049;-64
2021/08/04 00:48:24;;;;;;;5.05;4.20;;;;;;;;;;4898857;29;20049;-64
2021/08/04 00:51:09;;;;;;;5.38;4.57;;;;;;;;;;4898103;29;20052;-64
2021/08/04 00:53:54;;;;;;;4.90;4.50;;;;;;;;;;4897267;29;20045;-64
2021/08/04 00:56:40;;;;;;;6.82;4.63;;;;;;;;;;4897830;29;20079;-64
2021/08/04 00:59:25;;;;;;;5.82;5.22;;;;;;;;;;4896509;29;20052;-64
2021/08/04 01:02:12;;;;;;;5.68;5.13;;;;;;;;;;4895921;29;20075;-64
2021/08/04 01:05:13;;;;;;;6.30;4.68;;;;;;;;;;4897164;29;20488;-64
2021/08/04 01:08:04;;;;;;;8.13;5.35;;;;;;;;;;4897372;29;20052;-64
2021/08/04 01:10:51;;;;;;;5.60;5.10;;;;;;;;;;4910358;29;20522;-64
2021/08/04 01:13:38;;;;;;;6.57;5.43;;;;;;;;;;4908862;29;20047;-64
2021/08/04 01:16:27;;;;;;;8.68;5.25;;;;;;;;;;4892229;29;20045;-64
2021/08/04 01:19:43;;;;;;;6.07;5.22;;;;;;;;;;4891696;29;20103;-64
2021/08/04 01:22:31;;;;;;;7.57;5.72;;;;;;;;;;4887023;29;20136;-64
2021/08/04 01:25:20;;;;;;;5.45;4.93;;;;;;;;;;4877678;29;20053;-64
2021/08/04 01:28:20;;;;;;;6.10;5.45;;;;;;;;;;4891753;29;20105;-64
2021/08/04 01:31:07;;;;;;;6.90;5.32;;;;;;;;;;4891589;29;20056;-64
2021/08/04 01:33:53;;;;;;;6.97;4.85;;;;;;;;;;4890990;29;20049;-64
2021/08/04 01:36:39;;;;;;;8.02;5.22;;;;;;;;;;4896099;29;20497;-64
2021/08/04 01:39:24;;;;;;;5.07;4.57;;;;;;;;;;4896880;29;20052;-64
2021/08/04 01:42:10;;;;;;;6.05;4.88;;;;;;;;;;4883817;29;20127;-64
2021/08/04 01:44:56;;;;;;;5.88;4.78;;;;;;;;;;4896448;29;20493;-64
2021/08/04 01:47:41;;;;;;;6.65;4.65;;;;;;;;;;4880068;29;20180;-64
2021/08/04 01:50:27;;;;;;;5.32;4.82;;;;;;;;;;4878292;29;20056;-64
2021/08/04 01:53:12;;;;;;;5.70;4.80;;;;;;;;;;4878010;29;20128;-64
2021/08/04 01:55:57;;;;;;;5.25;4.75;;;;;;;;;;4878883;29;20056;-64
2021/08/04 01:58:43;;;;;;;5.07;4.53;;;;;;;;;;4877101;29;20063;-64
2021/08/04 02:01:28;;;;;;;6.07;5.10;;;;;;;;;;4891221;29;20413;-64
2021/08/04 02:04:13;;;;;;;6.72;5.43;;;;;;;;;;4878662;29;20060;-64
2021/08/04 02:07:00;;;;;;;5.90;5.28;;;;;;;;;;4895213;29;20068;-64
2021/08/04 02:09:48;;;;;;;6.90;5.03;;;;;;;;;;4897318;29;20153;-64
2021/08/04 02:12:35;;;;;;;5.00;4.60;;;;;;;;;;4883131;29;20045;-64
2021/08/04 02:15:21;;;;;;;5.47;4.85;;;;;;;;;;4895639;29;20520;-64
2021/08/04 02:18:08;;;;;;;5.93;5.03;;;;;;;;;;4884766;29;20422;-64
2021/08/04 02:20:53;;;;;;;5.20;4.55;;;;;;;;;;4864388;29;20514;-64
2021/08/04 02:23:39;;;;;;;6.38;4.82;;;;;;;;;;4864449;29;20080;-64
2021/08/04 02:26:24;;;;;;;4.90;4.47;;;;;;;;;;4878507;29;20049;-64
2021/08/04 02:29:09;;;;;;;4.90;4.50;;;;;;;;;;4902367;29;20068;-64
2021/08/04 02:31:54;;;;;;;7.43;4.68;;;;;;;;;;4895722;29;20055;-64
2021/08/04 02:34:40;;;;;;;7.55;5.05;;;;;;;;;;4894871;29;20108;-64
2021/08/04 02:37:25;;;;;;;8.15;4.82;;;;;;;;;;4894851;29;20055;-64
2021/08/04 02:40:11;;;;;;;5.55;4.78;;;;;;;;;;4895299;29;20541;-64
2021/08/04 02:42:56;;;;;;;5.50;5.00;;;;;;;;;;4896958;29;20446;-64
2021/08/04 02:45:43;;;;;;;5.47;4.97;;;;;;;;;;4896683;29;20140;-64
2021/08/04 02:48:28;;;;;;;5.57;4.70;;;;;;;;;;4895474;29;20041;-64
2021/08/04 02:51:13;;;;;;;6.32;4.78;;;;;;;;;;4895891;29;20136;-64
2021/08/04 02:53:59;;;;;;;6.15;4.78;;;;;;;;;;4882565;29;20089;-64
2021/08/04 02:56:45;;;;;;;6.15;4.32;;;;;;;;;;4896831;29;20164;-64
2021/08/04 02:59:30;;;;;;;5.53;4.18;;;;;;;;;;4895422;29;20136;-64
2021/08/04 03:02:15;;;;;;;6.13;4.80;;;;;;;;;;4896879;29;20056;-64
2021/08/04 03:05:01;;;;;;;5.28;4.43;;;;;;;;;;4895927;29;20075;-64
2021/08/04 03:07:46;;;;;;;5.68;4.60;;;;;;;;;;4895020;29;20044;-64
2021/08/04 03:10:31;;;;;;;4.60;4.20;;;;;;;;;;4895174;29;20089;-64
2021/08/04 03:13:16;;;;;;;7.22;4.70;;;;;;;;;;4893879;29;20413;-63
2021/08/04 03:16:02;;;;;;;5.43;4.57;;;;;;;;;;4895562;29;20049;-64
2021/08/04 03:18:49;;;;;;;5.00;3.80;;;;;;;;;;4895199;29;20524;-64
2021/08/04 03:21:34;;;;;;;5.43;4.72;;;;;;;;;;4896111;29;20048;-64
2021/08/04 03:24:20;;;;;;;5.30;4.47;;;;;;;;;;4895794;29;20044;-64
2021/08/04 03:27:05;;;;;;;4.95;4.22;;;;;;;;;;4897715;29;20044;-64
2021/08/04 03:29:51;;;;;;;6.30;4.28;;;;;;;;;;4897032;29;20184;-64
2021/08/04 03:32:37;;;;;;;6.18;4.03;;;;;;;;;;4897718;29;20128;-64
2021/08/04 03:35:22;;;;;;;6.57;4.18;;;;;;;;;;4899216;29;20132;-64
2021/08/04 03:38:07;;;;;;;6.38;4.03;;;;;;;;;;4899556;29;20063;-64
2021/08/04 03:40:54;;;;;;;4.95;4.45;;;;;;;;;;4890623;29;20056;-64
2021/08/04 03:43:39;;;;;;;4.97;4.47;;;;;;;;;;4899726;29;20056;-64
2021/08/04 03:46:25;;;;;;;5.75;4.30;;;;;;;;;;4899871;29;20045;-64
2021/08/04 03:49:11;;;;;;;5.20;4.22;;;;;;;;;;4899675;29;20049;-64
2021/08/04 03:51:56;;;;;;;11.02;5.00;;;;;;;;;;4897479;29;20044;-64
2021/08/04 03:54:41;;;;;;;6.68;5.22;;;;;;;;;;4899038;29;20130;-64
2021/08/04 03:57:27;;;;;;;7.03;5.00;;;;;;;;;;4899624;29;20051;-64
2021/08/04 04:00:13;;;;;;;5.35;4.85;;;;;;;;;;4898398;29;20074;-64
2021/08/04 04:02:58;;;;;;;5.18;4.68;;;;;;;;;;4899680;29;20064;-64
2021/08/04 04:05:44;;;;;;;5.38;4.88;;;;;;;;;;4899302;29;20056;-64
2021/08/04 04:08:29;;;;;;;5.63;4.15;;;;;;;;;;4899639;29;20045;-64
2021/08/04 04:11:15;;;;;;;5.15;4.32;;;;;;;;;;4894327;29;20508;-64
2021/08/04 04:14:01;;;;;;;6.63;5.05;;;;;;;;;;4879001;29;20055;-64
2021/08/04 04:16:49;;;;;;;6.90;4.60;;;;;;;;;;4897808;29;20052;-64
2021/08/04 04:19:35;;;;;;;5.53;4.40;;;;;;;;;;4899296;29;20052;-64
2021/08/04 04:22:21;;;;;;;7.53;5.10;;;;;;;;;;4897477;29;20048;-64
2021/08/04 04:25:06;;;;;;;6.30;4.50;;;;;;;;;;4897998;29;20128;-64
2021/08/04 04:27:52;;;;;;;5.47;4.97;;;;;;;;;;4899057;29;20123;-64
2021/08/04 04:30:37;;;;;;;5.75;5.15;;;;;;;;;;4899118;29;20416;-64
2021/08/04 04:33:22;;;;;;;6.10;5.28;;;;;;;;;;4897697;29;20251;-64
2021/08/04 04:36:08;;;;;;;6.35;5.07;;;;;;;;;;4898332;29;20076;-64
2021/08/04 04:38:53;;;;;;;8.35;5.75;;;;;;;;;;4898886;29;20113;-64
2021/08/04 04:41:39;;;;;;;6.05;5.35;;;;;;;;;;4899009;29;20056;-64
2021/08/04 04:44:24;;;;;;;6.55;5.68;;;;;;;;;;4898496;29;20049;-64
2021/08/04 04:47:10;;;;;;;5.95;5.40;;;;;;;;;;4898640;29;20045;-64
2021/08/04 04:49:55;;;;;;;7.25;5.50;;;;;;;;;;4898604;29;20051;-64
2021/08/04 04:52:41;;;;;;;5.30;4.80;;;;;;;;;;4897324;29;20573;-64
2021/08/04 04:55:26;;;;;;;5.97;5.00;;;;;;;;;;4898373;29;20112;-64
2021/08/04 04:58:12;;;;;;;8.32;5.20;;;;;;;;;;4898768;29;20052;-64
2021/08/04 05:00:57;;;;;;;7.85;5.50;;;;;;;;;;4898667;29;20499;-64
2021/08/04 05:03:43;;;;;;;4.85;4.38;;;;;;;;;;4888193;29;20056;-64
2021/08/04 05:06:30;;;;;;;5.53;4.70;;;;;;;;;;4879740;29;20505;-64
2021/08/04 05:09:16;;;;;;;5.03;4.35;;;;;;;;;;4879834;29;20469;-64
2021/08/04 05:12:02;;;;;;;6.32;4.68;;;;;;;;;;4879706;29;20192;-64
2021/08/04 05:14:47;;;;;;;7.18;4.95;;;;;;;;;;4879369;29;20049;-64
2021/08/04 05:17:33;;;;;;;7.40;5.35;;;;;;;;;;4879666;29;20052;-64
2021/08/04 05:20:21;;;;;;;5.15;4.55;;;;;;;;;;4879460;29;20520;-64
2021/08/04 05:23:06;;;;;;;5.00;4.60;;;;;;;;;;4879575;29;20060;-64
2021/08/04 05:25:51;;;;;;;6.35;4.97;;;;;;;;;;4878429;29;20057;-64
2021/08/04 05:28:37;;;;;;;5.53;4.25;;;;;;;;;;4879309;29;20215;-65
2021/08/04 05:31:22;;;;;;;5.43;4.30;;;;;;;;;;4879305;29;20052;-64
2021/08/04 05:34:07;;;;;;;6.47;4.35;;;;;;;;;;4879446;29;20053;-64
2021/08/04 05:36:53;;;;;;;4.82;4.03;;;;;;;;;;4879410;29;20063;-64
2021/08/04 05:39:38;;;;;;;4.75;4.07;;;;;;;;;;4879275;29;20067;-64
2021/08/04 05:42:24;;;;;;;5.25;4.35;;;;;;;;;;4879364;29;20057;-64
2021/08/04 05:45:09;;;;;;;4.85;3.60;;;;;;;;;;4886540;29;20099;-64
2021/08/04 05:47:55;;;;;;;7.75;4.15;;;;;;;;;;4896791;29;20052;-64
2021/08/04 05:50:40;;;;;;;4.35;3.95;;;;;;;;;;4897783;29;20135;-64
2021/08/04 05:53:26;;;;;;;3.70;3.22;;;;;;;;;;4897425;29;20147;-64
2021/08/04 05:56:11;;;;;;;4.50;3.40;;;;;;;;;;4883212;29;20524;-64
2021/08/04 05:58:56;;;;;;;3.97;3.35;;;;;;;;;;4878281;29;20053;-64
2021/08/04 06:01:42;;;;;;;3.05;2.78;;;;;;;;;;4892008;29;20063;-64
2021/08/04 06:04:27;;;;;;;4.80;2.78;;;;;;;;;;4897309;29;20076;-64
2021/08/04 06:07:13;;;;;;;3.53;2.25;;;;;;;;;;4896771;29;20045;-65
2021/08/04 06:09:58;;;;;;;4.70;2.65;;;;;;;;;;4897257;29;20148;-64
2021/08/04 06:12:44;;;;;;;3.53;2.70;;;;;;;;;;4897159;29;20056;-64
2021/08/04 06:15:29;;;;;;;2.20;1.95;;;;;;;;;;4894403;29;20133;-64
2021/08/04 06:18:15;;;;;;;2.53;1.95;;;;;;;;;;4878659;29;20056;-64
2021/08/04 06:21:00;;;;;;;1.90;1.58;;;;;;;;;;4897064;29;20497;-64
2021/08/04 06:23:48;;;;;;;2.25;1.67;;;;;;;;;;4897389;29;20127;-64
2021/08/04 06:26:34;;;;;;;4.00;1.77;;;;;;;;;;4884864;29;20204;-64
2021/08/04 06:29:20;;;;;;;1.88;1.60;;;;;;;;;;4896147;29;20055;-64
2021/08/04 06:32:06;;;;;;;3.50;1.50;;;;;;;;;;4897425;29;20044;-64
2021/08/04 06:34:51;;;;;;;4.55;1.20;;;;;;;;;;4897463;29;20052;-64
2021/08/04 06:37:40;;;;;;;1.23;1.10;;;;;;;;;;4884086;29;20520;-64
2021/08/04 06:40:27;;;;;;;3.17;1.13;;;;;;;;;;4896656;29;20529;-64
2021/08/04 06:43:12;;;;;;;1.10;1.00;;;;;;;;;;4896355;29;20196;-64
2021/08/04 06:45:58;;;;;;;2.30;1.17;;;;;;;;;;4892623;29;20049;-64
2021/08/04 06:48:44;;;;;;;1.48;1.20;;;;;;;;;;4895812;29;20295;-64
2021/08/04 06:51:29;;;;;;;4.32;0.80;;;;;;;;;;4895296;29;20056;-64
2021/08/04 06:54:15;;;;;;;1.42;0.98;;;;;;;;;;4895259;29;20055;-64
2021/08/04 06:57:00;;;;;;;1.90;1.00;;;;;;;;;;4894430;29;20060;-64
2021/08/04 06:59:45;;;;;;;1.92;1.20;;;;;;;;;;4895630;29;20049;-64
2021/08/04 07:02:31;;;;;;;1.73;0.88;;;;;;;;;;4899267;29;20057;-64
2021/08/04 07:05:17;;;;;;;0.88;0.77;;;;;;;;;;4899150;29;20056;-64
2021/08/04 07:08:02;;;;;;;0.98;0.73;;;;;;;;;;4898188;29;20098;-64
2021/08/04 07:10:48;;;;;;;1.98;1.10;;;;;;;;;;4896564;29;20552;-64
2021/08/04 07:13:33;;;;;;;1.05;0.60;;;;;;;;;;4894923;29;20055;-64
2021/08/04 07:16:19;;;;;;;1.42;0.90;;;;;;;;;;4898815;29;20405;-64
2021/08/04 07:19:04;;;;;;;2.05;0.77;;;;;;;;;;4897985;29;20527;-64
2021/08/04 07:21:50;;;;;;;1.08;0.63;;;;;;;;;;4897576;29;20421;-64
2021/08/04 07:24:35;;;;;;;1.50;0.63;;;;;;;;;;4898609;29;20100;-64
2021/08/04 07:27:20;;;;;;;2.80;0.90;;;;;;;;;;4899028;29;20044;-64
2021/08/04 07:30:06;;;;;;;2.00;0.70;;;;;;;;;;4899362;29;20100;-64
2021/08/04 07:32:52;;;;;;;0.88;0.60;;;;;;;;;;4896537;29;20088;-64
2021/08/04 07:35:37;;;;;;;1.83;1.00;;;;;;;;;;4897991;29;20516;-64
2021/08/04 07:38:22;;;;;;;6.40;1.20;;;;;;;;;;4899187;29;20204;-64
2021/08/04 07:41:08;;;;;;;1.77;0.80;;;;;;;;;;4894370;29;20055;-64
2021/08/04 07:43:53;;;;;;;0.88;0.65;;;;;;;;;;4895409;29;20063;-65
2021/08/04 07:46:38;;;;;;;1.75;0.70;;;;;;;;;;4896568;29;20051;-65
2021/08/04 07:49:24;;;;;;;0.63;0.55;;;;;;;;;;4891143;29;20989;-65
2021/08/04 07:52:09;;;;;;;1.60;0.70;;;;;;;;;;4892328;29;20045;-65
2021/08/04 07:54:55;;;;;;;0.93;0.50;;;;;;;;;;4942817;23;20055;-65
2021/08/04 07:57:40;;;;;;;1.20;0.40;;;;;;;;;;4910320;29;20068;-64
2021/08/04 08:00:27;;;;;;;1.15;0.60;;;;;;;;;;4896754;29;20055;-65
2021/08/04 08:03:12;;;;;;;1.92;0.60;;;;;;;;;;4894969;29;20071;-65
2021/08/04 08:05:57;;;;;;;1.55;0.93;;;;;;;;;;4896802;29;20052;-65
2021/08/04 08:08:43;;;;;;;1.92;0.63;;;;;;;;;;4897611;29;20188;-64
2021/08/04 08:11:28;;;;;;;1.80;0.90;;;;;;;;;;4895331;29;20512;-64
2021/08/04 08:14:13;;;;;;;1.00;0.60;;;;;;;;;;4894889;29;20071;-64
2021/08/04 08:16:58;;;;;;;0.95;0.85;;;;;;;;;;4907834;29;20533;-64
2021/08/04 08:19:44;;;;;;;2.13;0.80;;;;;;;;;;4908395;29;20055;-65
2021/08/04 08:22:30;;;;;;;2.75;0.65;;;;;;;;;;4913653;29;20460;-65
2021/08/04 08:25:15;;;;;;;1.98;0.75;;;;;;;;;;4912284;29;20047;-64
2021/08/04 08:28:00;;;;;;;1.05;0.60;;;;;;;;;;4877325;29;20048;-65
2021/08/04 08:30:46;;;;;;;0.52;0.43;;;;;;;;;;4890891;29;20136;-65
2021/08/04 08:33:31;;;;;;;10.73;1.08;;;;;;;;;;4878747;29;20060;-65
2021/08/04 08:36:16;;;;;;;1.73;0.75;;;;;;;;;;4896222;29;20055;-64
2021/08/04 08:39:02;;;;;;;0.70;0.55;;;;;;;;;;4897086;29;20056;-65
2021/08/04 08:41:47;;;;;;;3.63;0.95;;;;;;;;;;4897163;29;20055;-64
2021/08/04 08:44:32;;;;;;;0.85;0.50;;;;;;;;;;4894454;29;20132;-65
2021/08/04 08:47:17;;;;;;;1.63;0.70;;;;;;;;;;4894951;29;20053;-65
2021/08/04 08:50:03;;;;;;;1.05;0.75;;;;;;;;;;4896570;29;20064;-65
2021/08/04 08:52:49;;;;;;;2.60;0.52;;;;;;;;;;4897014;29;20116;-65
2021/08/04 08:55:34;;;;;;;2.10;0.50;;;;;;;;;;4894699;29;20425;-65
2021/08/04 08:58:19;;;;;;;2.22;0.70;;;;;;;;;;4895024;29;20052;-65
2021/08/04 09:01:04;;;;;;;0.82;0.82;;;;;;;;;;4895921;29;20048;-65
2021/08/04 09:03:50;;;;;;;1.08;0.70;;;;;;;;;;4895918;29;20056;-65
2021/08/04 09:06:46;;;;;;;0.85;0.57;;;;;;;;;;4895257;29;20056;-65
2021/08/04 09:09:32;;;;;;;1.95;0.88;;;;;;;;;;4891890;29;20100;-65
2021/08/04 09:12:18;;;;;;;0.95;0.43;;;;;;;;;;4895879;29;20507;-65
2021/08/04 09:15:04;;;;;;;2.15;0.60;;;;;;;;;;4894585;29;20052;-65
2021/08/04 09:18:02;;;;;;;2.22;0.80;;;;;;;;;;4896104;29;20080;-65
2021/08/04 09:20:52;;;;;;;1.38;0.68;;;;;;;;;;4896352;29;20060;-64
2021/08/04 09:23:40;;;;;;;2.03;1.45;;;;;;;;;;4895673;29;20068;-65
2021/08/04 09:26:26;;;;;;;1.10;0.93;;;;;;;;;;4894681;29;20040;-65
2021/08/04 09:29:12;;;;;;;1.20;0.80;;;;;;;;;;4894374;29;20506;-65
2021/08/04 09:31:57;;;;;;;1.13;0.80;;;;;;;;;;4896153;29;20119;-65
2021/08/04 09:34:42;;;;;;;1.40;1.02;;;;;;;;;;4895561;29;20059;-65
2021/08/04 09:37:27;;;;;;;1.70;1.33;;;;;;;;;;4893780;29;20131;-65
2021/08/04 09:40:13;;;;;;;1.30;0.77;;;;;;;;;;4894665;29;20060;-65
2021/08/04 09:42:58;;;;;;;1.00;0.70;;;;;;;;;;4895939;29;20053;-66
2021/08/04 09:45:47;;;;;;;2.10;0.80;;;;;;;;;;4894552;29;20135;-65
2021/08/04 09:48:32;;;;;;;1.40;0.93;;;;;;;;;;4895244;29;20045;-65
2021/08/04 09:51:18;;;;;;;1.98;0.90;;;;;;;;;;4894633;29;20424;-66
2021/08/04 09:54:07;;;;;;;1.85;1.00;;;;;;;;;;4895189;29;20049;-64
2021/08/04 09:56:53;;;;;;;2.13;0.90;;;;;;;;;;4894557;29;20040;-65
2021/08/04 09:59:38;;;;;;;3.58;1.02;;;;;;;;;;4894971;29;20056;-65
2021/08/04 10:02:29;;;;;;;2.88;1.00;;;;;;;;;;4892697;29;20048;-65
2021/08/04 10:05:15;;;;;;;1.85;0.88;;;;;;;;;;4894293;29;20066;-65
2021/08/04 10:08:07;;;;;;;2.25;0.90;;;;;;;;;;4876638;29;20053;-65
2021/08/04 10:10:53;;;;;;;1.98;0.70;;;;;;;;;;4876664;29;20069;-65
2021/08/04 10:13:39;;;;;;;1.40;0.93;;;;;;;;;;4876430;29;20127;-64
2021/08/04 10:16:25;;;;;;;4.53;1.20;;;;;;;;;;4876728;29;20151;-65
2021/08/04 10:19:10;;;;;;;1.10;0.80;;;;;;;;;;4893169;29;20172;-65
2021/08/04 10:21:55;;;;;;;1.92;0.85;;;;;;;;;;4895006;29;20056;-65
2021/08/04 10:24:43;;;;;;;1.63;1.10;;;;;;;;;;4894719;29;20457;-65
2021/08/04 10:27:29;;;;;;;1.65;1.27;;;;;;;;;;4886881;29;20041;-65
2021/08/04 10:30:15;;;;;;;1.63;1.10;;;;;;;;;;4874611;29;20174;-65
2021/08/04 10:33:00;;;;;;;1.40;1.20;;;;;;;;;;4876129;29;20410;-65
2021/08/04 10:36:05;;;;;;;1.67;1.15;;;;;;;;;;4875279;29;20053;-65
2021/08/04 10:38:51;;;;;;;3.15;1.10;;;;;;;;;;4891538;29;20161;-65
2021/08/04 10:41:36;;;;;;;1.15;1.10;;;;;;;;;;4892591;29;20055;-65
2021/08/04 10:44:22;;;;;;;3.42;1.30;;;;;;;;;;4893348;29;20040;-65
2021/08/04 10:47:08;;;;;;;3.13;1.10;;;;;;;;;;4890286;29;20059;-65
2021/08/04 10:50:19;;;;;;;1.45;1.00;;;;;;;;;;4887219;29;20096;-65
2021/08/04 10:53:06;;;;;;;2.00;1.55;;;;;;;;;;4877977;29;20059;-65
2021/08/04 10:55:55;;;;;;;1.45;0.93;;;;;;;;;;4892645;29;20060;-65
2021/08/04 10:58:41;;;;;;;1.30;0.90;;;;;;;;;;4894718;29;20056;-65
2021/08/04 11:01:27;;;;;;;1.85;1.20;;;;;;;;;;4904883;29;20087;-64
2021/08/04 11:04:27;;;;;;;1.50;1.10;;;;;;;;;;4911847;29;20040;-64
2021/08/04 11:07:13;;;;;;;2.65;1.02;;;;;;;;;;4911856;29;20051;-66
2021/08/04 11:09:58;;;;;;;2.35;0.77;;;;;;;;;;4910850;29;20110;-66
2021/08/04 11:12:44;;;;;;;1.33;0.73;;;;;;;;;;4913218;29;20060;-65
2021/08/04 11:15:29;;;;;;;1.70;0.90;;;;;;;;;;4915315;29;20055;-65
2021/08/04 11:18:15;;;;;;;1.55;1.30;;;;;;;;;;4895359;29;20523;-65
2021/08/04 11:21:11;;;;;;;3.28;1.33;;;;;;;;;;4896417;29;20052;-65
2021/08/04 11:23:58;;;;;;;1.98;1.05;;;;;;;;;;4895862;29;20048;-65
2021/08/04 11:26:44;;;;;;;1.45;1.02;;;;;;;;;;4894137;29;20065;-65
2021/08/04 11:29:45;;;;;;;1.73;1.00;;;;;;;;;;4895587;29;20414;-65
2021/08/04 11:32:31;;;;;;;1.48;0.95;;;;;;;;;;4896841;29;20063;-65
2021/08/04 11:35:17;;;;;;;2.47;1.10;;;;;;;;;;4896078;29;20126;-65
2021/08/04 11:38:02;;;;;;;1.00;0.90;;;;;;;;;;4895086;29;20059;-65
2021/08/04 11:40:47;;;;;;;1.52;1.00;;;;;;;;;;4894948;29;20057;-65
2021/08/04 11:43:33;;;;;;;3.30;1.50;;;;;;;;;;4895521;29;20040;-65
2021/08/04 11:46:28;;;;;;;2.03;1.70;;;;;;;;;;4898017;29;20124;-65
2021/08/04 11:49:14;;;;;;;2.33;1.40;;;;;;;;;;4898628;29;20123;-65
2021/08/04 11:51:59;;;;;;;2.17;1.10;;;;;;;;;;4899811;29;20040;-65
2021/08/04 11:54:49;;;;;;;2.67;1.10;;;;;;;;;;4899211;29;20465;-65
2021/08/04 11:57:35;;;;;;;1.90;0.70;;;;;;;;;;4898732;29;20124;-67
2021/08/04 12:00:24;;;;;;;2.13;1.10;;;;;;;;;;4879781;29;20059;-65
2021/08/04 12:03:19;;;;;;;1.50;0.80;;;;;;;;;;4881020;29;20169;-66
2021/08/04 12:06:16;;;;;;;2.35;1.00;;;;;;;;;;4880883;29;20053;-65
2021/08/04 12:09:20;;;;;;;0.70;0.60;;;;;;;;;;4888389;29;20544;-64
2021/08/04 12:12:07;;;;;;;1.92;1.13;;;;;;;;;;4899246;29;20044;-65
2021/08/04 12:14:52;;;;;;;3.22;1.00;;;;;;;;;;4898972;29;20076;-65
2021/08/04 12:17:38;;;;;;;1.95;0.73;;;;;;;;;;4899437;29;20504;-66
2021/08/04 12:20:24;;;;;;;1.48;0.93;;;;;;;;;;4897338;29;20124;-65
2021/08/04 12:23:10;;;;;;;1.75;0.85;;;;;;;;;;4898921;29;20056;-65
2021/08/04 12:25:59;;;;;;;1.50;1.10;;;;;;;;;;4899228;29;20063;-65
2021/08/04 12:28:44;;;;;;;2.35;0.90;;;;;;;;;;4898405;29;20049;-65
2021/08/04 12:31:30;;;;;;;2.45;0.98;;;;;;;;;;4880298;29;20063;-65
2021/08/04 12:34:16;;;;;;;0.80;0.70;;;;;;;;;;4888175;29;20496;-66
2021/08/04 12:37:01;;;;;;;2.40;1.55;;;;;;;;;;4898723;29;20072;-66
2021/08/04 12:39:47;;;;;;;2.47;0.90;;;;;;;;;;4896070;29;20111;-65
2021/08/04 12:42:32;;;;;;;2.45;0.60;;;;;;;;;;4893704;29;20051;-65
2021/08/04 12:45:18;;;;;;;3.33;0.70;;;;;;;;;;4895973;29;20047;-65
2021/08/04 12:48:04;;;;;;;1.35;0.70;;;;;;;;;;4880061;29;20056;-66
2021/08/04 12:50:54;;;;;;;4.53;0.80;;;;;;;;;;4888174;29;20044;-65
2021/08/04 12:53:39;;;;;;;1.58;0.90;;;;;;;;;;4897574;29;20409;-65
2021/08/04 12:56:32;;;;;;;1.42;1.10;;;;;;;;;;4896773;29;20052;-73
2021/08/04 12:59:19;;;;;;;;;;;;;;;;;;4896238;29;20044;-63
2021/08/04 13:02:08;;;;;;;1.20;0.80;;;;;;;;;;4895552;29;20372;-64
2021/08/04 13:05:02;;;;;;;2.47;0.73;;;;;;;;;;4897119;29;20059;-65
2021/08/04 13:07:48;;;;;;;1.40;0.70;;;;;;;;;;4896813;29;20055;-64
2021/08/04 13:10:40;;;;;;;1.73;1.00;;;;;;;;;;4896981;29;20056;-64
2021/08/04 13:13:25;;;;;;;1.45;0.88;;;;;;;;;;4897917;29;20145;-64
2021/08/04 13:16:13;;;;;;;3.40;1.02;;;;;;;;;;4898095;29;20051;-64
2021/08/04 13:18:59;;;;;;;1.52;0.90;;;;;;;;;;4898006;29;20045;-64
2021/08/04 13:22:02;;;;;;;1.60;1.00;;;;;;;;;;4897133;29;20055;-63
2021/08/04 13:24:48;;;;;;;1.58;0.85;;;;;;;;;;4897031;29;20140;-64
2021/08/04 13:27:34;;;;;;;1.88;1.20;;;;;;;;;;4898032;29;20093;-65
2021/08/04 13:30:20;;;;;;;2.20;0.88;;;;;;;;;;4893375;29;20052;-64
2021/08/04 13:33:07;;;;;;;1.25;0.90;;;;;;;;;;4893267;29;20115;-66
2021/08/04 13:35:52;;;;;;;2.00;0.80;;;;;;;;;;4894320;29;20049;-64
2021/08/04 13:38:38;;;;;;;1.17;1.00;;;;;;;;;;4895774;29;20041;-63
2021/08/04 13:41:23;;;;;;;1.20;1.00;;;;;;;;;;4893656;29;20056;-64
2021/08/04 13:44:08;;;;;;;3.50;1.23;;;;;;;;;;4876278;29;20049;-64
2021/08/04 13:46:54;;;;;;;1.67;1.10;;;;;;;;;;4877236;29;20053;-64
2021/08/04 13:49:39;;;;;;;1.38;1.10;;;;;;;;;;4911711;29;20048;-64
2021/08/04 13:52:24;;;;;;;1.77;1.30;;;;;;;;;;4906294;29;20247;-63
2021/08/04 13:55:15;;;;;;;3.08;1.05;;;;;;;;;;4908575;29;20135;-65
2021/08/04 13:58:01;;;;;;;2.30;0.90;;;;;;;;;;4912159;29;20048;-65
2021/08/04 14:00:46;;;;;;;2.60;1.00;;;;;;;;;;4910089;29;20180;-64
2021/08/04 14:03:31;;;;;;;2.47;0.88;;;;;;;;;;4907646;29;20052;-64
2021/08/04 14:06:17;;;;;;;2.58;0.73;;;;;;;;;;4957235;23;20114;-64
2021/08/04 14:09:02;;;;;;;2.10;1.10;;;;;;;;;;4938468;28;20644;-66
2021/08/04 14:11:47;;;;;;;1.38;1.00;;;;;;;;;;4938419;28;20083;-66
2021/08/04 14:14:33;;;;;;;1.48;1.10;;;;;;;;;;4936554;29;20114;-66
2021/08/04 14:17:18;;;;;;;2.80;1.20;;;;;;;;;;4936893;28;20107;-66
2021/08/04 14:20:04;;;;;;;1.00;0.77;;;;;;;;;;4924678;29;20050;-66
2021/08/04 14:22:49;;;;;;;2.15;1.00;;;;;;;;;;4932666;28;20098;-66
2021/08/04 14:25:34;;;;;;;1.25;0.80;;;;;;;;;;4926631;29;20099;-66
2021/08/04 14:28:20;;;;;;;2.42;0.85;;;;;;;;;;4931493;28;20416;-66
2021/08/04 14:31:05;;;;;;;3.20;1.52;;;;;;;;;;4922610;29;20152;-66
2021/08/04 14:33:51;;;;;;;4.20;1.23;;;;;;;;;;4931877;28;20054;-66
2021/08/04 14:36:36;;;;;;;2.25;0.85;;;;;;;;;;4932817;29;20389;-66
2021/08/04 14:39:21;;;;;;;1.27;0.68;;;;;;;;;;4931959;28;20451;-66
2021/08/04 14:42:06;;;;;;;1.23;0.70;;;;;;;;;;4929471;29;20055;-67
2021/08/04 14:44:51;;;;;;;1.35;0.70;;;;;;;;;;4931789;29;20058;-66
2021/08/04 14:47:37;;;;;;;1.65;0.77;;;;;;;;;;4932251;29;20055;-66
2021/08/04 14:50:23;;;;;;;1.80;0.93;;;;;;;;;;4934457;29;20424;-66
2021/08/04 14:53:08;;;;;;;1.20;0.70;;;;;;;;;;4933410;29;20059;-66
2021/08/04 14:55:55;;;;;;;2.20;1.00;;;;;;;;;;4934062;29;20118;-66
2021/08/04 14:58:41;;;;;;;1.25;0.80;;;;;;;;;;4934504;29;20052;-66
2021/08/04 15:01:27;;;;;;;2.38;0.80;;;;;;;;;;4932214;29;20070;-67
2021/08/04 15:04:12;;;;;;;1.10;0.90;;;;;;;;;;4933684;29;20051;-66
2021/08/04 15:06:57;;;;;;;1.50;0.63;;;;;;;;;;4934005;29;20203;-67
2021/08/04 15:09:43;;;;;;;2.53;0.77;;;;;;;;;;4934186;29;20048;-67
2021/08/04 15:12:29;;;;;;;2.00;0.63;;;;;;;;;;4932899;29;20168;-67
2021/08/04 15:15:14;;;;;;;2.28;0.50;;;;;;;;;;4934065;29;20416;-67
2021/08/04 15:17:59;;;;;;;0.70;0.60;;;;;;;;;;4934175;29;20070;-67
2021/08/04 15:20:45;;;;;;;2.80;0.45;;;;;;;;;;4935134;29;20048;-67
2021/08/04 15:23:30;;;;;;;1.23;0.47;;;;;;;;;;4938175;29;20051;-67
2021/08/04 15:26:16;;;;;;;0.80;0.70;;;;;;;;;;4933404;28;20055;-66
2021/08/04 15:29:02;;;;;;;1.00;0.70;;;;;;;;;;4934054;29;20044;-67
2021/08/04 15:31:47;;;;;;;1.27;0.80;;;;;;;;;;4929793;28;20062;-67
2021/08/04 15:34:32;;;;;;;2.45;0.50;;;;;;;;;;4935283;29;20056;-67
2021/08/04 15:37:18;;;;;;;0.65;0.50;;;;;;;;;;4934709;28;20064;-67
2021/08/04 15:40:03;;;;;;;3.42;0.70;;;;;;;;;;4934242;29;20063;-67
2021/08/04 15:42:49;;;;;;;1.50;0.82;;;;;;;;;;4935128;28;20058;-67
2021/08/04 15:45:35;;;;;;;1.50;0.65;;;;;;;;;;4935452;29;20396;-66
2021/08/04 15:48:20;;;;;;;1.35;0.75;;;;;;;;;;4942305;28;20059;-66
2021/08/04 15:51:05;;;;;;;1.52;0.68;;;;;;;;;;4934328;29;20165;-67
2021/08/04 15:53:51;;;;;;;1.08;0.68;;;;;;;;;;4935364;29;20043;-67
2021/08/04 15:56:36;;;;;;;3.35;0.70;;;;;;;;;;4930525;28;20055;-66
2021/08/04 15:59:22;;;;;;;1.35;0.70;;;;;;;;;;4934822;29;20048;-66
2021/08/04 16:02:07;;;;;;;1.48;0.63;;;;;;;;;;4933484;28;20546;-66
2021/08/04 16:04:52;;;;;;;1.45;1.13;;;;;;;;;;4935037;29;20134;-66
2021/08/04 16:07:38;;;;;;;2.05;0.70;;;;;;;;;;4934940;28;20048;-66
2021/08/04 16:10:23;;;;;;;0.80;0.55;;;;;;;;;;4934675;29;20044;-67
2021/08/04 16:13:08;;;;;;;0.80;0.70;;;;;;;;;;4938728;28;20065;-67
2021/08/04 16:15:53;;;;;;;3.13;0.88;;;;;;;;;;4935357;29;20428;-66
2021/08/04 16:18:39;;;;;;;1.58;0.55;;;;;;;;;;4934541;28;20074;-66
2021/08/04 16:21:24;;;;;;;1.05;0.80;;;;;;;;;;4933499;29;20138;-66
2021/08/04 16:24:09;;;;;;;1.30;0.90;;;;;;;;;;4932614;29;20117;-66
2021/08/04 16:26:56;;;;;;;1.13;0.82;;;;;;;;;;4934666;28;20051;-66
2021/08/04 16:29:41;;;;;;;1.20;0.77;;;;;;;;;;4947626;29;20552;-66
2021/08/04 16:32:26;;;;;;;3.15;1.42;;;;;;;;;;4932197;28;20447;-66
2021/08/04 16:35:12;;;;;;;2.97;1.10;;;;;;;;;;4933509;29;20040;-66
2021/08/04 16:37:58;;;;;;;1.55;1.00;;;;;;;;;;4934671;28;20051;-66